sensor_id;sensor_type;location;lat;lon;timestamp;temperature;humidity
20242;DHT22;10279;46.388;8.116;2024-02-14T00:00:35;5.90;99.90
20242;DHT22;10279;46.388;8.116;2024-02-14T00:03:02;5.90;99.90
20242;DHT22;10279;46.388;8.116;2024-02-14T00:05:30;5.90;99.90
20242;DHT22;10279;46.388;8.116;2024-02-14T00:07:57;5.90;99.90
20242;DHT22;10279;46.388;8.116;2024-02-14T00:10:24;5.90;99.90
20242;DHT22;10279;46.388;8.116;2024-02-14T00:12:51;5.90;99.90
20242;DHT22;10279;46.388;8.116;2024-02-14T00:15:19;5.90;99.90
20242;DHT22;10279;46.388;8.116;2024-02-14T00:17:46;5.90;99.90
20242;DHT22;10279;46.388;8.116;2024-02-14T00:20:13;5.90;99.90
20242;DHT22;10279;46.388;8.116;2024-02-14T00:22:40;6.00;99.90
20242;DHT22;10279;46.388;8.116;2024-02-14T00:25:08;6.00;99.90
20242;DHT22;10279;46.388;8.116;2024-02-14T00:27:36;5.90;99.90
20242;DHT22;10279;46.388;8.116;2024-02-14T00:30:04;6.00;99.90
20242;DHT22;10279;46.388;8.116;2024-02-14T00:32:31;6.00;99.90
20242;DHT22;10279;46.388;8.116;2024-02-14T00:35:00;6.00;99.90
20242;DHT22;10279;46.388;8.116;2024-02-14T00:37:28;6.00;99.90
20242;DHT22;10279;46.388;8.116;2024-02-14T00:39:56;6.10;99.90
20242;DHT22;10279;46.388;8.116;2024-02-14T00:42:24;6.10;99.90
20242;DHT22;10279;46.388;8.116;2024-02-14T00:44:52;6.10;99.90
20242;DHT22;10279;46.388;8.116;2024-02-14T00:47:19;6.10;99.90
20242;DHT22;10279;46.388;8.116;2024-02-14T00:49:46;6.00;99.90
20242;DHT22;10279;46.388;8.116;2024-02-14T00:52:13;6.00;99.90
20242;DHT22;10279;46.388;8.116;2024-02-14T00:54:41;6.00;99.90
20242;DHT22;10279;46.388;8.116;2024-02-14T00:57:08;6.00;99.90
20242;DHT22;10279;46.388;8.116;2024-02-14T00:59:35;6.00;99.90
20242;DHT22;10279;46.388;8.116;2024-02-14T01:02:02;6.00;99.90
20242;DHT22;10279;46.388;8.116;2024-02-14T01:04:29;5.90;99.90
20242;DHT22;10279;46.388;8.116;2024-02-14T01:06:57;5.90;99.90
20242;DHT22;10279;46.388;8.116;2024-02-14T01:09:24;5.90;99.90
20242;DHT22;10279;46.388;8.116;2024-02-14T01:11:52;6.00;99.90
20242;DHT22;10279;46.388;8.116;2024-02-14T01:14:19;6.00;99.90
20242;DHT22;10279;46.388;8.116;2024-02-14T01:16:46;5.90;99.90
20242;DHT22;10279;46.388;8.116;2024-02-14T01:19:13;5.90;99.90
20242;DHT22;10279;46.388;8.116;2024-02-14T01:21:41;5.90;99.90
20242;DHT22;10279;46.388;8.116;2024-02-14T01:24:09;5.90;99.90
20242;DHT22;10279;46.388;8.116;2024-02-14T01:26:36;5.70;99.90
20242;DHT22;10279;46.388;8.116;2024-02-14T01:29:04;5.70;99.90
20242;DHT22;10279;46.388;8.116;2024-02-14T01:31:35;5.70;99.90
20242;DHT22;10279;46.388;8.116;2024-02-14T01:34:02;5.70;99.90
20242;DHT22;10279;46.388;8.116;2024-02-14T01:36:30;5.70;99.90
20242;DHT22;10279;46.388;8.116;2024-02-14T01:38:57;5.70;99.90
20242;DHT22;10279;46.388;8.116;2024-02-14T01:41:24;5.60;99.90
20242;DHT22;10279;46.388;8.116;2024-02-14T01:43:51;5.60;99.90
20242;DHT22;10279;46.388;8.116;2024-02-14T01:46:19;5.50;99.90
20242;DHT22;10279;46.388;8.116;2024-02-14T01:48:46;5.50;99.90
20242;DHT22;10279;46.388;8.116;2024-02-14T01:51:16;5.50;99.90
20242;DHT22;10279;46.388;8.116;2024-02-14T01:53:44;5.60;99.90
20242;DHT22;10279;46.388;8.116;2024-02-14T01:56:12;5.70;99.90
20242;DHT22;10279;46.388;8.116;2024-02-14T01:58:40;5.60;99.90
20242;DHT22;10279;46.388;8.116;2024-02-14T02:01:07;5.60;99.90
20242;DHT22;10279;46.388;8.116;2024-02-14T02:03:34;5.60;99.90
20242;DHT22;10279;46.388;8.116;2024-02-14T02:06:06;5.60;99.90
20242;DHT22;10279;46.388;8.116;2024-02-14T02:08:34;5.60;99.90
20242;DHT22;10279;46.388;8.116;2024-02-14T02:11:01;5.50;99.90
20242;DHT22;10279;46.388;8.116;2024-02-14T02:13:28;5.50;99.90
20242;DHT22;10279;46.388;8.116;2024-02-14T02:15:56;5.40;99.90
20242;DHT22;10279;46.388;8.116;2024-02-14T02:18:23;5.50;99.90
20242;DHT22;10279;46.388;8.116;2024-02-14T02:20:52;5.50;99.90
20242;DHT22;10279;46.388;8.116;2024-02-14T02:23:20;5.50;99.90
20242;DHT22;10279;46.388;8.116;2024-02-14T02:25:48;5.50;99.90
20242;DHT22;10279;46.388;8.116;2024-02-14T02:28:16;5.50;99.90
20242;DHT22;10279;46.388;8.116;2024-02-14T02:30:43;5.50;99.90
20242;DHT22;10279;46.388;8.116;2024-02-14T02:33:13;5.50;99.90
20242;DHT22;10279;46.388;8.116;2024-02-14T02:35:42;5.30;99.90
20242;DHT22;10279;46.388;8.116;2024-02-14T02:38:12;5.30;99.90
20242;DHT22;10279;46.388;8.116;2024-02-14T02:40:39;5.20;99.90
20242;DHT22;10279;46.388;8.116;2024-02-14T02:43:10;5.20;99.90
20242;DHT22;10279;46.388;8.116;2024-02-14T02:45:37;5.20;99.90
20242;DHT22;10279;46.388;8.116;2024-02-14T02:48:06;5.20;99.90
20242;DHT22;10279;46.388;8.116;2024-02-14T02:50:34;5.20;99.90
20242;DHT22;10279;46.388;8.116;2024-02-14T02:53:01;5.20;99.90
20242;DHT22;10279;46.388;8.116;2024-02-14T02:55:28;5.20;99.90
20242;DHT22;10279;46.388;8.116;2024-02-14T02:57:56;5.20;99.90
20242;DHT22;10279;46.388;8.116;2024-02-14T03:00:23;5.30;99.90
20242;DHT22;10279;46.388;8.116;2024-02-14T03:02:50;5.20;99.90
20242;DHT22;10279;46.388;8.116;2024-02-14T03:05:17;5.30;99.90
20242;DHT22;10279;46.388;8.116;2024-02-14T03:07:46;5.20;99.90
20242;DHT22;10279;46.388;8.116;2024-02-14T03:10:15;5.30;99.90
20242;DHT22;10279;46.388;8.116;2024-02-14T03:12:49;5.30;99.90
20242;DHT22;10279;46.388;8.116;2024-02-14T03:15:17;5.20;99.90
20242;DHT22;10279;46.388;8.116;2024-02-14T03:17:46;5.30;99.90
20242;DHT22;10279;46.388;8.116;2024-02-14T03:20:14;5.30;99.90
20242;DHT22;10279;46.388;8.116;2024-02-14T03:22:44;5.30;99.90
20242;DHT22;10279;46.388;8.116;2024-02-14T03:25:13;5.30;99.90
20242;DHT22;10279;46.388;8.116;2024-02-14T03:27:43;5.30;99.90
20242;DHT22;10279;46.388;8.116;2024-02-14T03:30:15;5.10;99.90
20242;DHT22;10279;46.388;8.116;2024-02-14T03:32:44;5.10;99.90
20242;DHT22;10279;46.388;8.116;2024-02-14T03:35:14;5.10;99.90
20242;DHT22;10279;46.388;8.116;2024-02-14T03:37:42;5.10;99.90
20242;DHT22;10279;46.388;8.116;2024-02-14T03:40:11;5.10;99.90
20242;DHT22;10279;46.388;8.116;2024-02-14T03:42:38;5.10;99.90
20242;DHT22;10279;46.388;8.116;2024-02-14T03:45:09;5.10;99.90
20242;DHT22;10279;46.388;8.116;2024-02-14T03:47:36;5.00;99.90
20242;DHT22;10279;46.388;8.116;2024-02-14T03:50:10;5.10;99.90
20242;DHT22;10279;46.388;8.116;2024-02-14T03:52:37;5.10;99.90
20242;DHT22;10279;46.388;8.116;2024-02-14T03:55:05;5.00;99.90
20242;DHT22;10279;46.388;8.116;2024-02-14T03:57:33;5.00;99.90
20242;DHT22;10279;46.388;8.116;2024-02-14T04:00:02;5.10;99.90
20242;DHT22;10279;46.388;8.116;2024-02-14T04:02:31;4.90;99.90
20242;DHT22;10279;46.388;8.116;2024-02-14T04:04:59;4.90;99.90
20242;DHT22;10279;46.388;8.116;2024-02-14T04:07:26;4.90;99.90
20242;DHT22;10279;46.388;8.116;2024-02-14T04:09:53;4.90;99.90
20242;DHT22;10279;46.388;8.116;2024-02-14T04:12:21;5.00;99.90
20242;DHT22;10279;46.388;8.116;2024-02-14T04:14:48;5.00;99.90
20242;DHT22;10279;46.388;8.116;2024-02-14T04:17:15;4.90;99.90
20242;DHT22;10279;46.388;8.116;2024-02-14T04:19:42;5.00;99.90
20242;DHT22;10279;46.388;8.116;2024-02-14T04:22:10;5.10;99.90
20242;DHT22;10279;46.388;8.116;2024-02-14T04:24:37;4.90;99.90
20242;DHT22;10279;46.388;8.116;2024-02-14T04:27:05;4.90;99.90
20242;DHT22;10279;46.388;8.116;2024-02-14T04:29:33;4.90;99.90
20242;DHT22;10279;46.388;8.116;2024-02-14T04:32:02;4.90;99.90
20242;DHT22;10279;46.388;8.116;2024-02-14T04:34:29;4.80;99.90
20242;DHT22;10279;46.388;8.116;2024-02-14T04:36:57;4.80;99.90
20242;DHT22;10279;46.388;8.116;2024-02-14T04:39:25;4.70;99.90
20242;DHT22;10279;46.388;8.116;2024-02-14T04:41:52;4.70;99.90
20242;DHT22;10279;46.388;8.116;2024-02-14T04:44:31;4.70;99.90
20242;DHT22;10279;46.388;8.116;2024-02-14T04:46:59;4.70;99.90
20242;DHT22;10279;46.388;8.116;2024-02-14T04:49:27;4.80;99.90
20242;DHT22;10279;46.388;8.116;2024-02-14T04:51:58;4.70;99.90
20242;DHT22;10279;46.388;8.116;2024-02-14T04:54:25;4.70;99.90
20242;DHT22;10279;46.388;8.116;2024-02-14T04:56:54;4.60;99.90
20242;DHT22;10279;46.388;8.116;2024-02-14T04:59:26;4.70;99.90
20242;DHT22;10279;46.388;8.116;2024-02-14T05:01:53;4.70;99.90
20242;DHT22;10279;46.388;8.116;2024-02-14T05:04:21;4.70;99.90
20242;DHT22;10279;46.388;8.116;2024-02-14T05:06:49;4.80;99.90
20242;DHT22;10279;46.388;8.116;2024-02-14T05:09:20;4.80;99.90
20242;DHT22;10279;46.388;8.116;2024-02-14T05:11:47;4.80;99.90
20242;DHT22;10279;46.388;8.116;2024-02-14T05:14:14;4.80;99.90
20242;DHT22;10279;46.388;8.116;2024-02-14T05:16:43;4.80;99.90
20242;DHT22;10279;46.388;8.116;2024-02-14T05:19:10;4.70;99.90
20242;DHT22;10279;46.388;8.116;2024-02-14T05:21:38;4.60;99.90
20242;DHT22;10279;46.388;8.116;2024-02-14T05:24:05;4.70;99.90
20242;DHT22;10279;46.388;8.116;2024-02-14T05:26:34;4.70;99.90
20242;DHT22;10279;46.388;8.116;2024-02-14T05:29:01;4.70;99.90
20242;DHT22;10279;46.388;8.116;2024-02-14T05:31:45;4.70;99.90
20242;DHT22;10279;46.388;8.116;2024-02-14T05:34:13;4.60;99.90
20242;DHT22;10279;46.388;8.116;2024-02-14T05:36:40;4.60;99.90
20242;DHT22;10279;46.388;8.116;2024-02-14T05:39:09;4.60;99.90
20242;DHT22;10279;46.388;8.116;2024-02-14T05:41:37;4.50;99.90
20242;DHT22;10279;46.388;8.116;2024-02-14T05:44:04;4.50;99.90
20242;DHT22;10279;46.388;8.116;2024-02-14T05:46:31;4.50;99.90
20242;DHT22;10279;46.388;8.116;2024-02-14T05:48:58;4.50;99.90
20242;DHT22;10279;46.388;8.116;2024-02-14T05:51:26;4.30;99.90
20242;DHT22;10279;46.388;8.116;2024-02-14T05:53:53;4.30;99.90
20242;DHT22;10279;46.388;8.116;2024-02-14T05:56:20;4.40;99.90
20242;DHT22;10279;46.388;8.116;2024-02-14T05:58:47;4.40;99.90
20242;DHT22;10279;46.388;8.116;2024-02-14T06:01:14;4.40;99.90
20242;DHT22;10279;46.388;8.116;2024-02-14T06:03:42;4.40;99.90
20242;DHT22;10279;46.388;8.116;2024-02-14T06:06:10;4.40;99.90
20242;DHT22;10279;46.388;8.116;2024-02-14T06:08:37;4.30;99.90
20242;DHT22;10279;46.388;8.116;2024-02-14T06:11:04;4.30;99.90
20242;DHT22;10279;46.388;8.116;2024-02-14T06:13:31;4.30;99.90
20242;DHT22;10279;46.388;8.116;2024-02-14T06:15:59;4.40;99.90
20242;DHT22;10279;46.388;8.116;2024-02-14T06:18:26;4.40;99.90
20242;DHT22;10279;46.388;8.116;2024-02-14T06:20:53;4.30;99.90
20242;DHT22;10279;46.388;8.116;2024-02-14T06:23:20;4.30;99.90
20242;DHT22;10279;46.388;8.116;2024-02-14T06:25:47;4.40;99.90
20242;DHT22;10279;46.388;8.116;2024-02-14T06:28:14;4.40;99.90
20242;DHT22;10279;46.388;8.116;2024-02-14T06:30:41;4.30;99.90
20242;DHT22;10279;46.388;8.116;2024-02-14T06:33:09;4.30;99.90
20242;DHT22;10279;46.388;8.116;2024-02-14T06:35:37;4.30;99.90
20242;DHT22;10279;46.388;8.116;2024-02-14T06:38:04;4.30;99.90
20242;DHT22;10279;46.388;8.116;2024-02-14T06:40:33;4.30;99.90
20242;DHT22;10279;46.388;8.116;2024-02-14T06:43:01;4.30;99.90
20242;DHT22;10279;46.388;8.116;2024-02-14T06:45:29;4.40;99.90
20242;DHT22;10279;46.388;8.116;2024-02-14T06:47:56;4.40;99.90
20242;DHT22;10279;46.388;8.116;2024-02-14T06:50:23;4.30;99.90
20242;DHT22;10279;46.388;8.116;2024-02-14T06:52:53;4.20;99.90
20242;DHT22;10279;46.388;8.116;2024-02-14T06:55:20;4.20;99.90
20242;DHT22;10279;46.388;8.116;2024-02-14T06:57:47;4.30;99.90
20242;DHT22;10279;46.388;8.116;2024-02-14T07:00:15;4.30;99.90
20242;DHT22;10279;46.388;8.116;2024-02-14T07:02:42;4.40;99.90
20242;DHT22;10279;46.388;8.116;2024-02-14T07:05:10;4.40;99.90
20242;DHT22;10279;46.388;8.116;2024-02-14T07:07:41;4.40;99.90
20242;DHT22;10279;46.388;8.116;2024-02-14T07:10:09;4.40;99.90
20242;DHT22;10279;46.388;8.116;2024-02-14T07:12:36;4.50;99.90
20242;DHT22;10279;46.388;8.116;2024-02-14T07:15:04;4.50;99.90
20242;DHT22;10279;46.388;8.116;2024-02-14T07:17:32;4.50;99.90
20242;DHT22;10279;46.388;8.116;2024-02-14T07:20:01;4.60;99.90
20242;DHT22;10279;46.388;8.116;2024-02-14T07:22:29;4.60;99.90
20242;DHT22;10279;46.388;8.116;2024-02-14T07:24:57;4.70;99.90
20242;DHT22;10279;46.388;8.116;2024-02-14T07:27:25;4.70;99.90
20242;DHT22;10279;46.388;8.116;2024-02-14T07:29:52;4.70;99.90
20242;DHT22;10279;46.388;8.116;2024-02-14T07:32:20;4.80;99.90
20242;DHT22;10279;46.388;8.116;2024-02-14T07:34:47;4.80;99.90
20242;DHT22;10279;46.388;8.116;2024-02-14T07:37:15;4.80;99.90
20242;DHT22;10279;46.388;8.116;2024-02-14T07:39:45;4.80;99.90
20242;DHT22;10279;46.388;8.116;2024-02-14T07:42:13;4.80;99.90
20242;DHT22;10279;46.388;8.116;2024-02-14T07:44:41;4.70;99.90
20242;DHT22;10279;46.388;8.116;2024-02-14T07:47:08;4.70;99.90
20242;DHT22;10279;46.388;8.116;2024-02-14T07:49:35;4.70;99.90
20242;DHT22;10279;46.388;8.116;2024-02-14T07:52:03;4.70;99.90
20242;DHT22;10279;46.388;8.116;2024-02-14T07:54:30;4.70;99.90
20242;DHT22;10279;46.388;8.116;2024-02-14T07:56:58;4.70;99.90
20242;DHT22;10279;46.388;8.116;2024-02-14T07:59:25;4.70;99.90
20242;DHT22;10279;46.388;8.116;2024-02-14T08:01:54;4.80;99.90
20242;DHT22;10279;46.388;8.116;2024-02-14T08:04:21;4.80;99.90
20242;DHT22;10279;46.388;8.116;2024-02-14T08:06:48;4.80;99.90
20242;DHT22;10279;46.388;8.116;2024-02-14T08:09:16;4.80;99.90
20242;DHT22;10279;46.388;8.116;2024-02-14T08:11:44;4.80;99.90
20242;DHT22;10279;46.388;8.116;2024-02-14T08:14:11;4.90;99.90
20242;DHT22;10279;46.388;8.116;2024-02-14T08:16:39;4.90;99.90
20242;DHT22;10279;46.388;8.116;2024-02-14T08:19:06;5.00;99.90
20242;DHT22;10279;46.388;8.116;2024-02-14T08:21:33;5.20;99.90
20242;DHT22;10279;46.388;8.116;2024-02-14T08:24:01;5.30;99.90
20242;DHT22;10279;46.388;8.116;2024-02-14T08:26:29;5.40;99.90
20242;DHT22;10279;46.388;8.116;2024-02-14T08:28:56;5.50;99.90
20242;DHT22;10279;46.388;8.116;2024-02-14T08:31:25;5.50;99.90
20242;DHT22;10279;46.388;8.116;2024-02-14T08:33:52;5.60;99.90
20242;DHT22;10279;46.388;8.116;2024-02-14T08:36:21;5.60;99.90
20242;DHT22;10279;46.388;8.116;2024-02-14T08:38:48;5.70;99.90
20242;DHT22;10279;46.388;8.116;2024-02-14T08:41:16;5.70;99.90
20242;DHT22;10279;46.388;8.116;2024-02-14T08:43:45;5.90;99.90
20242;DHT22;10279;46.388;8.116;2024-02-14T08:46:14;6.00;99.90
20242;DHT22;10279;46.388;8.116;2024-02-14T08:48:42;6.10;99.90
20242;DHT22;10279;46.388;8.116;2024-02-14T08:51:15;6.20;99.90
20242;DHT22;10279;46.388;8.116;2024-02-14T08:53:44;6.30;99.90
20242;DHT22;10279;46.388;8.116;2024-02-14T08:56:12;6.40;99.90
20242;DHT22;10279;46.388;8.116;2024-02-14T08:58:41;6.50;99.90
20242;DHT22;10279;46.388;8.116;2024-02-14T09:01:08;6.50;99.90
20242;DHT22;10279;46.388;8.116;2024-02-14T09:03:44;6.60;99.90
20242;DHT22;10279;46.388;8.116;2024-02-14T09:06:17;6.50;99.90
20242;DHT22;10279;46.388;8.116;2024-02-14T09:08:46;6.50;99.90
20242;DHT22;10279;46.388;8.116;2024-02-14T09:11:13;6.60;99.90
20242;DHT22;10279;46.388;8.116;2024-02-14T09:13:40;6.60;99.90
20242;DHT22;10279;46.388;8.116;2024-02-14T09:16:11;6.70;99.90
20242;DHT22;10279;46.388;8.116;2024-02-14T09:18:38;6.80;99.90
20242;DHT22;10279;46.388;8.116;2024-02-14T09:21:06;6.80;99.90
20242;DHT22;10279;46.388;8.116;2024-02-14T09:23:34;6.80;99.90
20242;DHT22;10279;46.388;8.116;2024-02-14T09:26:01;6.90;99.90
20242;DHT22;10279;46.388;8.116;2024-02-14T09:28:29;6.90;99.90
20242;DHT22;10279;46.388;8.116;2024-02-14T09:30:56;7.00;99.90
20242;DHT22;10279;46.388;8.116;2024-02-14T09:33:24;7.10;99.90
20242;DHT22;10279;46.388;8.116;2024-02-14T09:35:51;7.20;99.90
20242;DHT22;10279;46.388;8.116;2024-02-14T09:38:19;7.30;99.90
20242;DHT22;10279;46.388;8.116;2024-02-14T09:40:47;7.30;99.90
20242;DHT22;10279;46.388;8.116;2024-02-14T09:43:43;7.40;99.90
20242;DHT22;10279;46.388;8.116;2024-02-14T09:46:14;7.60;99.90
20242;DHT22;10279;46.388;8.116;2024-02-14T09:48:45;7.70;99.90
20242;DHT22;10279;46.388;8.116;2024-02-14T09:51:13;7.80;99.90
20242;DHT22;10279;46.388;8.116;2024-02-14T09:53:41;7.90;99.90
20242;DHT22;10279;46.388;8.116;2024-02-14T09:56:10;8.00;99.90
20242;DHT22;10279;46.388;8.116;2024-02-14T09:58:40;8.10;99.90
20242;DHT22;10279;46.388;8.116;2024-02-14T10:01:08;8.20;99.90
20242;DHT22;10279;46.388;8.116;2024-02-14T10:03:35;8.40;99.90
20242;DHT22;10279;46.388;8.116;2024-02-14T10:06:03;8.60;99.90
20242;DHT22;10279;46.388;8.116;2024-02-14T10:08:32;8.70;99.90
20242;DHT22;10279;46.388;8.116;2024-02-14T10:10:59;8.80;99.90
20242;DHT22;10279;46.388;8.116;2024-02-14T10:13:27;9.00;99.90
20242;DHT22;10279;46.388;8.116;2024-02-14T10:15:56;9.10;99.90
20242;DHT22;10279;46.388;8.116;2024-02-14T10:18:23;9.20;99.90
20242;DHT22;10279;46.388;8.116;2024-02-14T10:20:56;9.40;99.90
20242;DHT22;10279;46.388;8.116;2024-02-14T10:23:24;9.50;99.90
20242;DHT22;10279;46.388;8.116;2024-02-14T10:25:54;9.70;99.90
20242;DHT22;10279;46.388;8.116;2024-02-14T10:28:23;9.80;99.90
20242;DHT22;10279;46.388;8.116;2024-02-14T10:31:02;10.00;99.90
20242;DHT22;10279;46.388;8.116;2024-02-14T10:33:29;10.10;99.90
20242;DHT22;10279;46.388;8.116;2024-02-14T10:35:57;10.30;99.90
20242;DHT22;10279;46.388;8.116;2024-02-14T10:38:31;10.50;99.90
20242;DHT22;10279;46.388;8.116;2024-02-14T10:41:01;10.60;99.90
20242;DHT22;10279;46.388;8.116;2024-02-14T10:43:29;10.60;99.90
20242;DHT22;10279;46.388;8.116;2024-02-14T10:45:58;10.80;99.80
20242;DHT22;10279;46.388;8.116;2024-02-14T10:48:28;10.90;99.50
20242;DHT22;10279;46.388;8.116;2024-02-14T10:51:02;11.20;99.00
20242;DHT22;10279;46.388;8.116;2024-02-14T10:53:33;11.30;98.80
20242;DHT22;10279;46.388;8.116;2024-02-14T10:56:02;11.50;98.70
20242;DHT22;10279;46.388;8.116;2024-02-14T10:58:30;11.60;98.70
20242;DHT22;10279;46.388;8.116;2024-02-14T11:01:00;11.80;98.50
20242;DHT22;10279;46.388;8.116;2024-02-14T11:03:28;11.90;98.20
20242;DHT22;10279;46.388;8.116;2024-02-14T11:06:01;12.00;98.60
20242;DHT22;10279;46.388;8.116;2024-02-14T11:08:32;12.10;98.10
20242;DHT22;10279;46.388;8.116;2024-02-14T11:11:00;12.20;97.90
20242;DHT22;10279;46.388;8.116;2024-02-14T11:13:31;12.40;98.10
20242;DHT22;10279;46.388;8.116;2024-02-14T11:16:02;12.40;97.40
20242;DHT22;10279;46.388;8.116;2024-02-14T11:18:31;12.50;96.80
20242;DHT22;10279;46.388;8.116;2024-02-14T11:21:04;12.60;96.30
20242;DHT22;10279;46.388;8.116;2024-02-14T11:23:31;12.80;96.30
20242;DHT22;10279;46.388;8.116;2024-02-14T11:26:00;12.90;95.80
20242;DHT22;10279;46.388;8.116;2024-02-14T11:28:28;13.00;95.50
20242;DHT22;10279;46.388;8.116;2024-02-14T11:31:02;13.20;95.10
20242;DHT22;10279;46.388;8.116;2024-02-14T11:33:32;13.30;95.20
20242;DHT22;10279;46.388;8.116;2024-02-14T11:36:07;13.40;95.10
20242;DHT22;10279;46.388;8.116;2024-02-14T11:38:34;13.40;94.60
20242;DHT22;10279;46.388;8.116;2024-02-14T11:41:02;13.50;94.30
20242;DHT22;10279;46.388;8.116;2024-02-14T11:43:30;13.60;94.70
20242;DHT22;10279;46.388;8.116;2024-02-14T11:45:59;13.80;94.90
20242;DHT22;10279;46.388;8.116;2024-02-14T11:48:26;13.90;95.50
20242;DHT22;10279;46.388;8.116;2024-02-14T11:50:55;13.90;95.20
20242;DHT22;10279;46.388;8.116;2024-02-14T11:53:23;14.00;95.50
20242;DHT22;10279;46.388;8.116;2024-02-14T11:55:50;14.00;95.10
20242;DHT22;10279;46.388;8.116;2024-02-14T11:58:17;14.10;95.60
20242;DHT22;10279;46.388;8.116;2024-02-14T12:00:46;14.20;94.60
20242;DHT22;10279;46.388;8.116;2024-02-14T12:03:18;14.30;94.90
20242;DHT22;10279;46.388;8.116;2024-02-14T12:05:47;14.40;94.80
20242;DHT22;10279;46.388;8.116;2024-02-14T12:08:15;14.50;94.50
20242;DHT22;10279;46.388;8.116;2024-02-14T12:10:43;14.50;94.00
20242;DHT22;10279;46.388;8.116;2024-02-14T12:13:14;14.60;94.20
20242;DHT22;10279;46.388;8.116;2024-02-14T12:15:46;14.70;93.80
20242;DHT22;10279;46.388;8.116;2024-02-14T12:18:14;14.80;93.90
20242;DHT22;10279;46.388;8.116;2024-02-14T12:20:42;14.80;93.80
20242;DHT22;10279;46.388;8.116;2024-02-14T12:23:16;15.00;94.70
20242;DHT22;10279;46.388;8.116;2024-02-14T12:25:49;15.10;93.50
20242;DHT22;10279;46.388;8.116;2024-02-14T12:28:17;15.20;94.30
20242;DHT22;10279;46.388;8.116;2024-02-14T12:30:51;15.20;92.80
20242;DHT22;10279;46.388;8.116;2024-02-14T12:33:24;15.30;92.70
20242;DHT22;10279;46.388;8.116;2024-02-14T12:35:54;15.40;93.70
20242;DHT22;10279;46.388;8.116;2024-02-14T12:38:22;15.50;93.70
20242;DHT22;10279;46.388;8.116;2024-02-14T12:40:52;15.50;92.90
20242;DHT22;10279;46.388;8.116;2024-02-14T12:43:22;15.60;92.10
20242;DHT22;10279;46.388;8.116;2024-02-14T12:45:49;15.70;93.00
20242;DHT22;10279;46.388;8.116;2024-02-14T12:48:23;15.80;92.10
20242;DHT22;10279;46.388;8.116;2024-02-14T12:50:55;15.90;92.70
20242;DHT22;10279;46.388;8.116;2024-02-14T12:53:23;15.90;92.00
20242;DHT22;10279;46.388;8.116;2024-02-14T12:55:51;16.10;92.60
20242;DHT22;10279;46.388;8.116;2024-02-14T12:58:18;16.20;91.80
20242;DHT22;10279;46.388;8.116;2024-02-14T13:00:45;16.30;92.10
20242;DHT22;10279;46.388;8.116;2024-02-14T13:03:13;16.40;92.20
20242;DHT22;10279;46.388;8.116;2024-02-14T13:05:44;16.60;91.80
20242;DHT22;10279;46.388;8.116;2024-02-14T13:08:12;16.70;91.90
20242;DHT22;10279;46.388;8.116;2024-02-14T13:10:39;16.70;90.90
20242;DHT22;10279;46.388;8.116;2024-02-14T13:13:06;16.50;91.00
20242;DHT22;10279;46.388;8.116;2024-02-14T13:15:33;16.20;90.30
20242;DHT22;10279;46.388;8.116;2024-02-14T13:18:00;15.80;91.00
20242;DHT22;10279;46.388;8.116;2024-02-14T13:20:29;15.40;91.40
20242;DHT22;10279;46.388;8.116;2024-02-14T13:22:56;15.00;91.20
20242;DHT22;10279;46.388;8.116;2024-02-14T13:25:23;14.80;90.10
20242;DHT22;10279;46.388;8.116;2024-02-14T13:27:50;14.50;92.90
20242;DHT22;10279;46.388;8.116;2024-02-14T13:30:18;14.30;92.70
20242;DHT22;10279;46.388;8.116;2024-02-14T13:32:46;14.20;94.00
20242;DHT22;10279;46.388;8.116;2024-02-14T13:35:14;14.10;96.40
20242;DHT22;10279;46.388;8.116;2024-02-14T13:37:41;14.00;94.50
20242;DHT22;10279;46.388;8.116;2024-02-14T13:40:08;14.10;93.90
20242;DHT22;10279;46.388;8.116;2024-02-14T13:42:37;14.10;94.10
20242;DHT22;10279;46.388;8.116;2024-02-14T13:45:07;13.80;93.90
20242;DHT22;10279;46.388;8.116;2024-02-14T13:47:38;13.60;95.00
20242;DHT22;10279;46.388;8.116;2024-02-14T13:50:08;13.40;95.90
20242;DHT22;10279;46.388;8.116;2024-02-14T13:52:36;13.30;95.60
20242;DHT22;10279;46.388;8.116;2024-02-14T13:55:04;13.20;96.30
20242;DHT22;10279;46.388;8.116;2024-02-14T13:57:36;13.20;96.40
20242;DHT22;10279;46.388;8.116;2024-02-14T14:00:09;13.20;96.50
20242;DHT22;10279;46.388;8.116;2024-02-14T14:02:37;13.20;97.50
20242;DHT22;10279;46.388;8.116;2024-02-14T14:05:12;13.20;97.90
20242;DHT22;10279;46.388;8.116;2024-02-14T14:07:43;13.30;97.30
20242;DHT22;10279;46.388;8.116;2024-02-14T14:10:24;13.20;94.90
20242;DHT22;10279;46.388;8.116;2024-02-14T14:12:54;12.90;93.80
20242;DHT22;10279;46.388;8.116;2024-02-14T14:15:21;12.80;95.30
20242;DHT22;10279;46.388;8.116;2024-02-14T14:17:53;12.70;96.80
20242;DHT22;10279;46.388;8.116;2024-02-14T14:20:20;12.70;96.10
20242;DHT22;10279;46.388;8.116;2024-02-14T14:22:48;12.60;95.70
20242;DHT22;10279;46.388;8.116;2024-02-14T14:25:15;12.60;97.60
20242;DHT22;10279;46.388;8.116;2024-02-14T14:27:42;12.60;97.60
20242;DHT22;10279;46.388;8.116;2024-02-14T14:30:11;12.50;97.50
20242;DHT22;10279;46.388;8.116;2024-02-14T14:32:39;12.30;99.10
20242;DHT22;10279;46.388;8.116;2024-02-14T14:35:07;12.00;97.30
20242;DHT22;10279;46.388;8.116;2024-02-14T14:37:38;11.80;97.10
20242;DHT22;10279;46.388;8.116;2024-02-14T14:40:05;11.70;97.00
20242;DHT22;10279;46.388;8.116;2024-02-14T14:42:36;11.50;97.00
20242;DHT22;10279;46.388;8.116;2024-02-14T14:45:04;11.50;96.60
20242;DHT22;10279;46.388;8.116;2024-02-14T14:47:31;11.50;95.10
20242;DHT22;10279;46.388;8.116;2024-02-14T14:49:58;11.40;94.90
20242;DHT22;10279;46.388;8.116;2024-02-14T14:52:26;11.30;93.70
20242;DHT22;10279;46.388;8.116;2024-02-14T14:54:53;11.30;93.90
20242;DHT22;10279;46.388;8.116;2024-02-14T14:57:20;11.20;93.30
20242;DHT22;10279;46.388;8.116;2024-02-14T14:59:48;11.20;93.90
20242;DHT22;10279;46.388;8.116;2024-02-14T15:02:15;11.10;93.60
20242;DHT22;10279;46.388;8.116;2024-02-14T15:04:42;11.10;93.00
20242;DHT22;10279;46.388;8.116;2024-02-14T15:07:13;11.00;92.70
20242;DHT22;10279;46.388;8.116;2024-02-14T15:09:42;11.00;93.00
20242;DHT22;10279;46.388;8.116;2024-02-14T15:12:10;10.90;92.40
20242;DHT22;10279;46.388;8.116;2024-02-14T15:14:37;10.80;92.40
20242;DHT22;10279;46.388;8.116;2024-02-14T15:17:05;10.80;92.90
20242;DHT22;10279;46.388;8.116;2024-02-14T15:19:32;10.80;92.80
20242;DHT22;10279;46.388;8.116;2024-02-14T15:22:00;10.80;92.90
20242;DHT22;10279;46.388;8.116;2024-02-14T15:24:30;10.90;93.20
20242;DHT22;10279;46.388;8.116;2024-02-14T15:26:57;10.90;92.50
20242;DHT22;10279;46.388;8.116;2024-02-14T15:29:28;10.90;92.60
20242;DHT22;10279;46.388;8.116;2024-02-14T15:32:15;10.70;92.80
20242;DHT22;10279;46.388;8.116;2024-02-14T15:35:01;10.70;93.10
20242;DHT22;10279;46.388;8.116;2024-02-14T15:37:31;10.60;93.00
20242;DHT22;10279;46.388;8.116;2024-02-14T15:39:59;10.60;93.20
20242;DHT22;10279;46.388;8.116;2024-02-14T15:42:26;10.60;93.90
20242;DHT22;10279;46.388;8.116;2024-02-14T15:44:53;10.60;93.60
20242;DHT22;10279;46.388;8.116;2024-02-14T15:47:20;10.60;93.50